createdAt,value
2022-10-12T03:18:32.695Z,5.73
2022-10-12T03:21:42.561Z,5.17
2022-10-12T03:24:52.125Z,5.50
2022-10-12T03:28:01.841Z,4.90
2022-10-12T03:31:11.432Z,3.40
2022-10-12T03:34:24.471Z,2.60
2022-10-12T03:37:34.084Z,3.10
2022-10-12T03:40:44.155Z,2.80
2022-10-12T03:43:56.317Z,3.67
2022-10-12T03:47:05.945Z,3.23
2022-10-12T03:50:16.947Z,3.60
2022-10-12T03:53:29.071Z,3.20
2022-10-12T03:56:38.631Z,3.20
2022-10-12T03:59:50.508Z,3.27
2022-10-12T04:03:01.036Z,3.63
2022-10-12T04:06:14.511Z,3.27
2022-10-12T04:09:24.137Z,4.77
2022-10-12T04:12:33.791Z,3.97
2022-10-12T04:15:43.538Z,3.33
2022-10-12T04:19:01.771Z,4.07
2022-10-12T04:22:12.670Z,3.27
2022-10-12T04:25:27.584Z,2.60
2022-10-12T04:28:54.426Z,2.40
2022-10-12T04:32:12.990Z,3.10
2022-10-12T04:35:22.629Z,3.87
2022-10-12T04:38:36.546Z,4.27
2022-10-12T04:41:48.513Z,4.50
2022-10-12T04:45:03.377Z,4.17
2022-10-12T04:48:17.564Z,4.67
2022-10-12T04:51:30.231Z,6.77
2022-10-12T04:54:41.781Z,8.60
2022-10-12T04:57:51.378Z,9.30
2022-10-12T05:07:44.960Z,15.07
2022-10-12T05:10:59.251Z,11.20
2022-10-12T05:14:10.062Z,13.60
2022-10-12T05:17:19.741Z,17.17
2022-10-12T05:20:29.453Z,19.83
2022-10-12T05:23:39.150Z,12.00
2022-10-12T05:26:50.078Z,11.90
2022-10-12T05:29:59.701Z,11.70
2022-10-12T05:33:11.481Z,11.83
2022-10-12T05:36:21.302Z,4.80
2022-10-12T05:39:30.917Z,5.17
2022-10-12T05:42:41.904Z,7.87
2022-10-12T05:45:53.728Z,6.30
2022-10-12T05:52:27.356Z,12.90
2022-10-12T05:55:36.931Z,9.13
2022-10-12T05:58:47.779Z,6.50
2022-10-12T06:02:00.231Z,6.40
2022-10-12T06:05:10.566Z,6.70
2022-10-12T06:08:23.254Z,5.27
2022-10-12T06:11:36.273Z,6.60
2022-10-12T06:14:47.569Z,4.40
2022-10-12T06:17:59.797Z,11.67
2022-10-12T06:21:31.895Z,24.53
2022-10-12T06:24:39.231Z,17.30
2022-10-12T06:27:51.128Z,14.03
2022-10-12T06:31:02.223Z,4.80
2022-10-12T06:34:25.458Z,20.40
2022-10-12T06:37:49.708Z,18.77
2022-10-12T06:41:00.102Z,37.30
2022-10-12T06:44:09.927Z,9.70
2022-10-12T06:47:23.864Z,9.00
2022-10-12T06:50:33.473Z,6.10
2022-10-12T06:53:49.359Z,4.80
2022-10-12T06:57:01.969Z,6.77
2022-10-12T07:00:12.384Z,4.97
2022-10-12T07:03:25.631Z,6.50
2022-10-12T07:06:51.679Z,4.67
2022-10-12T09:36:44.501Z,3.40
2022-10-12T09:39:55.432Z,3.13
2022-10-12T09:43:05.404Z,3.37
2022-10-12T09:46:17.384Z,3.50
2022-10-12T09:49:41.338Z,3.27
2022-10-12T09:52:55.138Z,3.07
2022-10-12T09:56:10.704Z,3.53
2022-10-12T09:59:29.148Z,3.20
2022-10-12T10:02:49.462Z,2.73
2022-10-12T10:06:05.005Z,2.97
2022-10-12T10:09:30.686Z,2.93
2022-10-12T10:12:48.106Z,2.93
2022-10-12T10:16:05.750Z,2.87
2022-10-12T10:19:19.202Z,2.67
2022-10-12T10:22:30.197Z,3.53
2022-10-12T10:25:41.141Z,2.97
2022-10-12T10:28:54.695Z,3.00
2022-10-12T10:32:12.507Z,3.50
2022-10-12T10:35:23.108Z,2.80
2022-10-12T10:38:55.197Z,2.90
2022-10-12T10:42:17.282Z,3.30
2022-10-12T10:45:29.756Z,2.90
2022-10-12T10:48:53.311Z,3.30
2022-10-12T10:52:06.635Z,2.97
2022-10-12T10:55:29.260Z,2.50
2022-10-12T10:58:45.696Z,3.23
2022-10-12T11:01:58.098Z,9.20
2022-10-12T11:05:14.079Z,10.87
2022-10-12T11:08:29.890Z,13.00
2022-10-12T11:11:49.962Z,13.17
2022-10-12T11:15:07.962Z,12.63
2022-10-12T11:18:23.658Z,12.00
2022-10-12T11:21:39.335Z,13.10
2022-10-12T11:24:54.271Z,14.53
2022-10-12T11:28:03.917Z,14.03
2022-10-12T11:31:24.493Z,11.80
2022-10-12T11:34:53.992Z,10.63
2022-10-12T11:38:15.101Z,9.67
2022-10-12T11:41:35.301Z,14.27
2022-10-12T11:44:48.635Z,9.93
2022-10-12T11:48:03.569Z,9.30
2022-10-12T11:51:13.483Z,10.03
2022-10-12T11:54:32.088Z,10.60
2022-10-12T11:57:42.334Z,10.10
2022-10-12T12:01:08.911Z,10.37
2022-10-12T12:04:43.182Z,10.03
2022-10-12T12:07:54.689Z,9.70
2022-10-12T12:11:09.734Z,9.37
2022-10-12T12:14:47.771Z,9.80
2022-10-12T12:18:12.634Z,9.47
2022-10-12T12:21:23.643Z,8.23
2022-10-12T12:24:33.421Z,8.53
2022-10-12T12:27:46.401Z,8.07
2022-10-12T12:30:58.807Z,8.33
2022-10-12T12:34:14.951Z,8.53
2022-10-12T12:37:32.131Z,7.87
2022-10-12T12:40:42.770Z,9.27
2022-10-12T12:43:57.127Z,8.60
2022-10-12T12:47:45.555Z,8.53
2022-10-12T12:51:00.879Z,8.23
2022-10-12T12:54:18.925Z,8.83
2022-10-12T12:57:44.220Z,8.70
2022-10-12T13:01:08.398Z,8.07
2022-10-12T13:04:44.510Z,7.50
2022-10-12T13:08:06.371Z,8.27
2022-10-12T13:11:44.475Z,6.80
2022-10-12T13:15:08.207Z,6.00
2022-10-12T13:18:48.456Z,5.80
2022-10-12T13:22:03.779Z,7.57
2022-10-12T13:25:27.765Z,6.33
2022-10-12T13:28:43.339Z,6.33
2022-10-12T13:31:58.132Z,6.60
2022-10-12T13:35:14.200Z,6.33
2022-10-12T13:38:26.021Z,6.10
2022-10-12T13:41:38.929Z,5.77
2022-10-12T13:44:50.263Z,6.23
2022-10-12T13:48:05.071Z,5.90
2022-10-12T13:51:24.383Z,6.37
2022-10-12T13:54:38.645Z,5.40
2022-10-12T13:57:50.141Z,5.90
2022-10-12T14:01:01.391Z,6.10
2022-10-12T14:04:12.202Z,6.37
2022-10-12T14:07:25.302Z,5.67
2022-10-12T14:10:37.117Z,5.70
2022-10-12T14:13:47.713Z,5.60
2022-10-12T14:16:58.915Z,5.50
2022-10-12T14:20:18.421Z,6.13
2022-10-12T14:23:28.418Z,5.90
2022-10-12T14:26:41.437Z,5.87
2022-10-12T14:29:54.159Z,6.13
2022-10-12T14:33:21.583Z,9.83
2022-10-12T14:36:31.334Z,32.63
2022-10-12T14:39:42.214Z,24.20
2022-10-12T14:42:58.631Z,6.17
2022-10-12T14:46:08.427Z,6.17
2022-10-12T14:49:24.375Z,5.60
2022-10-12T14:52:40.626Z,5.23
2022-10-12T14:55:53.758Z,5.33
2022-10-12T14:59:04.488Z,5.53
2022-10-12T15:02:17.625Z,5.27
2022-10-12T15:05:32.591Z,32.77
2022-10-12T15:08:42.439Z,8.43
2022-10-12T15:11:52.139Z,5.67
2022-10-12T15:15:12.435Z,5.23
2022-10-12T15:18:22.305Z,5.40
2022-10-12T15:21:33.258Z,5.50
2022-10-12T15:24:45.431Z,6.00
2022-10-12T15:27:55.136Z,5.57
2022-10-12T15:31:22.521Z,9.93
2022-10-12T15:34:35.288Z,9.37
2022-10-12T15:37:48.883Z,7.03
2022-10-12T15:40:58.935Z,5.20
2022-10-12T15:44:10.975Z,5.53
2022-10-12T15:47:20.717Z,5.57
2022-10-12T15:50:40.129Z,5.23
2022-10-12T15:54:07.610Z,5.70
2022-10-12T15:57:19.522Z,5.53
2022-10-12T16:00:32.701Z,6.17
2022-10-12T16:03:45.051Z,6.03
2022-10-12T16:06:54.706Z,6.13
2022-10-12T16:10:08.582Z,5.77
2022-10-12T16:13:18.642Z,5.43
2022-10-12T16:16:30.024Z,5.90
2022-10-12T16:19:54.330Z,5.83
2022-10-12T16:23:05.784Z,6.70
2022-10-12T16:26:31.563Z,6.10
2022-10-12T16:29:43.612Z,7.70
2022-10-12T16:32:53.378Z,5.93
2022-10-12T16:36:09.208Z,6.70
2022-10-12T16:39:18.997Z,7.30
2022-10-12T16:42:32.182Z,9.30
2022-10-12T16:45:41.786Z,7.33
2022-10-12T16:48:51.557Z,8.93
2022-10-12T16:52:01.618Z,8.47
2022-10-12T16:55:11.887Z,9.33
2022-10-12T16:58:22.930Z,9.33
2022-10-12T17:01:33.639Z,9.60
2022-10-12T17:04:43.749Z,8.70
2022-10-12T17:07:54.369Z,8.83
2022-10-12T17:11:16.727Z,8.03
2022-10-12T17:14:38.472Z,7.60
2022-10-12T17:17:50.055Z,9.47
2022-10-12T17:21:09.092Z,9.03
2022-10-12T17:24:28.034Z,7.73
2022-10-12T17:27:40.224Z,8.43
2022-10-12T17:30:53.193Z,7.80
2022-10-12T17:34:05.441Z,8.60
2022-10-12T17:37:17.900Z,8.33
2022-10-12T17:40:29.663Z,12.10
2022-10-12T17:43:46.665Z,8.90
2022-10-12T17:47:06.806Z,7.57
2022-10-12T17:50:21.898Z,8.27
2022-10-12T17:53:38.026Z,8.93
2022-10-12T17:57:00.856Z,8.47
2022-10-12T18:00:14.424Z,8.47
2022-10-12T18:03:34.133Z,9.20
2022-10-12T18:06:46.650Z,8.70
2022-10-12T18:10:03.132Z,8.27
2022-10-12T18:13:15.306Z,8.43
2022-10-12T18:16:30.158Z,9.30
2022-10-12T18:19:48.426Z,11.63
2022-10-12T18:23:13.796Z,16.97
2022-10-12T18:26:32.237Z,10.63
2022-10-12T18:29:47.596Z,12.40
2022-10-12T18:33:03.467Z,12.37
2022-10-12T18:36:26.161Z,10.37
2022-10-12T18:39:39.675Z,14.47
2022-10-12T18:42:51.393Z,15.53
2022-10-12T18:46:10.195Z,15.50
2022-10-12T18:49:21.838Z,16.80
2022-10-12T18:52:37.654Z,23.03
2022-10-12T18:55:51.020Z,12.27
2022-10-12T18:59:05.214Z,15.67
2022-10-12T19:02:22.455Z,11.37
2022-10-12T19:05:39.618Z,13.53
2022-10-12T19:09:00.374Z,11.40
2022-10-12T19:12:20.272Z,11.03
2022-10-12T19:15:35.449Z,14.93
2022-10-12T19:18:49.015Z,14.70
2022-10-12T19:22:07.807Z,14.00
2022-10-12T19:25:24.045Z,12.77
2022-10-12T19:28:39.173Z,11.60
2022-10-12T19:32:01.982Z,12.70
2022-10-12T19:35:15.617Z,11.60
